createdAt,value
2018-12-24T00:00:26.265Z,78.36
2018-12-24T00:03:00.037Z,78.04
2018-12-24T00:05:32.175Z,78.41
2018-12-24T00:08:04.345Z,77.74
2018-12-24T00:10:36.485Z,77.91
2018-12-24T00:13:08.599Z,77.91
2018-12-24T00:15:40.711Z,77.96
2018-12-24T00:18:12.857Z,77.54
2018-12-24T00:20:44.955Z,77.38
2018-12-24T00:23:17.054Z,77.04
2018-12-24T00:25:49.147Z,76.45
2018-12-24T00:28:21.268Z,76.22
2018-12-24T00:30:53.385Z,76.19
2018-12-24T00:33:25.467Z,76.44
2018-12-24T00:35:57.590Z,76.95
2018-12-24T00:38:29.679Z,77.32
2018-12-24T00:41:01.799Z,77.44
2018-12-24T00:43:33.913Z,77.35
2018-12-24T00:46:06.050Z,77.63
2018-12-24T00:48:38.251Z,77.40
2018-12-24T00:51:10.347Z,77.38
2018-12-24T00:53:42.440Z,77.36
2018-12-24T00:56:14.634Z,76.97
2018-12-24T00:58:46.814Z,76.81
2018-12-24T01:01:18.911Z,76.66
2018-12-24T01:03:51.041Z,76.61
2018-12-24T01:06:23.136Z,76.90
2018-12-24T01:08:55.299Z,76.03
2018-12-24T01:11:27.473Z,75.00
2018-12-24T01:13:59.576Z,75.01
2018-12-24T01:16:31.675Z,74.36
2018-12-24T01:19:03.797Z,74.39
2018-12-24T01:21:36.064Z,73.97
2018-12-24T01:24:08.278Z,74.16
2018-12-24T01:26:40.382Z,74.10
2018-12-24T01:29:12.508Z,73.07
2018-12-24T01:31:44.600Z,73.41
2018-12-24T01:34:16.719Z,73.83
2018-12-24T01:36:48.818Z,73.58
2018-12-24T01:39:20.974Z,73.58
2018-12-24T01:41:53.086Z,73.73
2018-12-24T01:44:25.186Z,73.50
2018-12-24T01:46:57.284Z,73.26
2018-12-24T01:49:29.406Z,73.32
2018-12-24T01:52:01.472Z,73.42
2018-12-24T01:54:33.579Z,73.33
2018-12-24T01:57:05.837Z,73.39
2018-12-24T01:59:37.984Z,73.50
2018-12-24T02:02:10.097Z,73.78
2018-12-24T02:04:42.202Z,73.60
2018-12-24T02:07:14.408Z,73.54
2018-12-24T02:09:46.539Z,73.78
2018-12-24T02:12:18.702Z,73.92
2018-12-24T02:14:50.804Z,73.86
2018-12-24T02:17:23.029Z,73.43
2018-12-24T02:19:55.153Z,74.25
2018-12-24T02:22:27.318Z,74.27
2018-12-24T02:24:59.425Z,74.97
2018-12-24T02:27:31.514Z,75.43
2018-12-24T02:30:03.690Z,75.44
2018-12-24T02:32:36.169Z,75.64
2018-12-24T02:35:08.346Z,75.19
2018-12-24T02:37:40.487Z,74.93
2018-12-24T02:40:12.599Z,74.95
2018-12-24T02:42:52.253Z,74.37
2018-12-24T02:45:18.586Z,74.21
2018-12-24T02:47:50.786Z,74.00
2018-12-24T02:50:22.915Z,74.30
2018-12-24T02:52:55.031Z,74.00
2018-12-24T02:55:27.139Z,73.86
2018-12-24T02:57:59.288Z,74.52
2018-12-24T03:00:31.381Z,74.24
2018-12-24T03:03:03.623Z,74.44
2018-12-24T03:05:35.831Z,74.05
2018-12-24T03:08:07.951Z,74.32
2018-12-24T03:10:40.084Z,74.04
2018-12-24T03:13:12.210Z,74.23
2018-12-24T03:15:44.374Z,74.30
2018-12-24T03:18:16.473Z,73.75
2018-12-24T03:20:48.575Z,73.39
2018-12-24T03:23:20.707Z,73.38
2018-12-24T03:25:53.583Z,72.79
2018-12-24T03:28:25.757Z,73.32
2018-12-24T03:30:57.965Z,74.01
2018-12-24T03:33:30.142Z,74.03
2018-12-24T03:36:02.258Z,73.81
2018-12-24T03:38:35.505Z,73.47
2018-12-24T03:41:07.655Z,73.84
2018-12-24T03:43:39.908Z,74.46
2018-12-24T03:46:12.015Z,74.26
2018-12-24T03:48:44.118Z,74.78
2018-12-24T03:51:16.485Z,74.74
2018-12-24T03:53:49.053Z,74.98
2018-12-24T03:56:21.274Z,74.92
2018-12-24T03:58:53.440Z,75.09
2018-12-24T04:01:25.534Z,75.07
2018-12-24T04:03:57.673Z,74.91
2018-12-24T04:06:29.789Z,74.79
2018-12-24T04:09:01.921Z,74.68
2018-12-24T04:11:35.206Z,75.01
2018-12-24T04:14:07.430Z,74.80
2018-12-24T04:16:39.577Z,74.57
2018-12-24T04:19:11.688Z,74.32
2018-12-24T04:21:44.001Z,74.15
2018-12-24T04:24:16.322Z,74.54
2018-12-24T04:26:48.421Z,74.74
2018-12-24T04:29:21.379Z,74.61
2018-12-24T04:31:53.521Z,74.62
2018-12-24T04:34:25.711Z,74.57
2018-12-24T04:36:57.828Z,74.19
2018-12-24T04:39:29.927Z,74.61
2018-12-24T04:42:02.110Z,74.15
2018-12-24T04:44:34.291Z,74.49
2018-12-24T04:47:06.488Z,74.24
2018-12-24T04:49:38.788Z,74.21
2018-12-24T04:52:10.906Z,74.33
2018-12-24T04:54:44.129Z,74.56
2018-12-24T04:57:16.225Z,73.59
2018-12-24T04:59:48.376Z,73.54
2018-12-24T05:02:20.492Z,72.67
2018-12-24T05:04:52.639Z,73.28
2018-12-24T05:07:24.786Z,72.57
2018-12-24T05:09:56.915Z,71.62
2018-12-24T05:12:29.045Z,71.91
2018-12-24T05:15:01.178Z,70.93
2018-12-24T05:17:33.369Z,70.22
2018-12-24T05:20:05.649Z,70.55
2018-12-24T05:22:37.839Z,70.09
2018-12-24T05:25:10.028Z,70.14
2018-12-24T05:27:42.159Z,70.26
2018-12-24T05:30:14.284Z,70.16
2018-12-24T05:32:46.492Z,70.52
2018-12-24T05:35:18.603Z,70.55
2018-12-24T05:37:50.709Z,70.86
2018-12-24T05:40:22.805Z,70.94
2018-12-24T05:42:54.948Z,70.63
2018-12-24T05:45:27.053Z,70.81
2018-12-24T05:47:59.171Z,71.40
2018-12-24T05:50:31.291Z,70.99
2018-12-24T05:53:03.539Z,71.10
2018-12-24T05:55:35.699Z,71.33
2018-12-24T05:58:07.859Z,71.37
2018-12-24T06:00:40.101Z,71.97
2018-12-24T06:03:12.198Z,71.39
2018-12-24T06:05:44.298Z,70.27
2018-12-24T06:08:21.429Z,69.65
2018-12-24T06:10:53.853Z,70.67
2018-12-24T06:13:25.984Z,68.44
2018-12-24T06:15:58.098Z,66.83
2018-12-24T06:18:30.321Z,67.96
2018-12-24T06:21:02.418Z,67.60
2018-12-24T06:23:34.590Z,67.76
2018-12-24T06:26:06.863Z,68.19
2018-12-24T06:28:39.051Z,68.44
2018-12-24T06:31:12.297Z,68.72
2018-12-24T06:33:44.437Z,68.92
2018-12-24T06:36:16.766Z,69.10
2018-12-24T06:38:48.884Z,68.86
2018-12-24T06:41:21.087Z,68.50
2018-12-24T06:43:53.187Z,67.90
2018-12-24T06:46:25.328Z,66.98
2018-12-24T06:48:57.513Z,66.18
2018-12-24T06:51:29.762Z,65.22
2018-12-24T06:54:01.989Z,64.61
2018-12-24T06:56:34.161Z,64.32
2018-12-24T06:59:06.338Z,65.81
2018-12-24T07:01:38.579Z,66.88
2018-12-24T07:04:10.826Z,68.08
2018-12-24T07:06:42.966Z,68.58
2018-12-24T07:09:15.823Z,68.28
2018-12-24T07:15:09.359Z,69.42
2018-12-24T07:17:43.216Z,67.53
2018-12-24T07:20:15.370Z,68.04
2018-12-24T07:22:50.401Z,67.49
2018-12-24T07:25:28.624Z,67.11
2018-12-24T07:28:06.815Z,66.20
2018-12-24T07:30:39.023Z,65.55
2018-12-24T07:33:12.184Z,66.80
2018-12-24T07:35:44.787Z,66.25
2018-12-24T07:38:17.249Z,66.48
2018-12-24T07:40:50.989Z,66.10
2018-12-24T07:43:23.233Z,65.35
2018-12-24T07:45:55.442Z,65.04
2018-12-24T07:48:27.767Z,64.89
2018-12-24T07:51:03.436Z,64.21
2018-12-24T07:53:36.793Z,63.72
2018-12-24T07:56:08.927Z,64.77
2018-12-24T07:58:41.397Z,64.43
2018-12-24T08:01:16.590Z,64.90
2018-12-24T08:03:48.797Z,65.48
2018-12-24T08:06:21.360Z,65.89
2018-12-24T08:08:53.670Z,66.28
2018-12-24T08:11:26.781Z,66.17
2018-12-24T08:14:10.232Z,66.53
2018-12-24T08:16:43.077Z,66.67
2018-12-24T08:19:15.348Z,66.55
2018-12-24T08:21:48.866Z,66.46
2018-12-24T08:24:21.198Z,66.25
2018-12-24T08:26:56.823Z,65.73
2018-12-24T08:29:29.010Z,65.01
2018-12-24T08:32:01.308Z,64.61
2018-12-24T08:34:33.664Z,64.39
2018-12-24T08:37:08.823Z,64.06
2018-12-24T08:39:41.179Z,65.00
2018-12-24T08:42:15.150Z,63.74
2018-12-24T08:48:19.308Z,62.70
2018-12-24T08:52:05.496Z,64.12
2018-12-24T08:54:17.934Z,63.69
2018-12-24T08:56:50.207Z,63.59
2018-12-24T08:59:22.421Z,62.63
2018-12-24T09:01:54.523Z,62.57
2018-12-24T09:04:26.696Z,62.18
2018-12-24T09:06:58.838Z,61.70
2018-12-24T09:09:31.173Z,61.12
2018-12-24T09:12:03.291Z,61.46
2018-12-24T09:14:35.558Z,62.16
2018-12-24T09:17:08.368Z,62.23
2018-12-24T09:19:40.705Z,62.34
2018-12-24T09:22:12.882Z,62.93
2018-12-24T09:24:45.111Z,62.72
2018-12-24T09:27:17.368Z,63.11
2018-12-24T09:29:49.617Z,64.27
2018-12-24T09:32:21.848Z,63.61
2018-12-24T09:34:54.080Z,63.42
2018-12-24T09:37:26.314Z,63.62
2018-12-24T09:39:58.700Z,63.78
2018-12-24T09:42:31.034Z,64.07
2018-12-24T09:45:03.187Z,63.72
2018-12-24T09:47:36.780Z,63.31
2018-12-24T09:50:09.252Z,62.57
2018-12-24T09:52:41.521Z,62.42
2018-12-24T09:59:44.153Z,60.65
2018-12-24T10:06:34.304Z,61.08
2018-12-24T10:07:02.535Z,60.74
2018-12-24T10:09:16.333Z,60.99
2018-12-24T10:11:53.719Z,60.52
2018-12-24T10:14:32.007Z,59.90
2018-12-24T10:17:09.373Z,59.42
2018-12-24T10:19:48.463Z,59.61
2018-12-24T10:22:29.791Z,60.05
2018-12-24T10:25:02.077Z,59.23
2018-12-24T10:27:37.815Z,59.95
2018-12-24T10:30:11.002Z,59.82
2018-12-24T10:32:43.078Z,59.57
2018-12-24T10:35:15.425Z,59.78
2018-12-24T10:38:50.361Z,60.17
2018-12-24T10:41:29.709Z,60.50
2018-12-24T10:44:02.088Z,60.73
2018-12-24T10:46:34.334Z,58.35
2018-12-24T10:49:08.686Z,56.85
2018-12-24T10:51:41.073Z,53.11
2018-12-24T10:54:14.446Z,57.54
2018-12-24T10:56:46.648Z,58.38
2018-12-24T10:59:18.948Z,55.58
2018-12-24T11:01:51.203Z,54.77
2018-12-24T11:04:25.486Z,50.13
2018-12-24T11:06:57.824Z,55.88
2018-12-24T11:13:27.037Z,58.68
2018-12-24T11:15:59.354Z,60.69
2018-12-24T11:18:33.462Z,61.08
2018-12-24T11:21:05.809Z,61.45
2018-12-24T11:23:39.936Z,61.70
2018-12-24T11:26:12.094Z,62.20
2018-12-24T11:28:44.271Z,61.64
2018-12-24T11:31:16.421Z,61.77
2018-12-24T11:33:48.672Z,62.34
2018-12-24T11:36:21.639Z,61.93
2018-12-24T11:38:53.946Z,62.04
2018-12-24T11:41:26.924Z,61.80
2018-12-24T11:43:59.123Z,60.96
2018-12-24T11:46:31.614Z,61.14
2018-12-24T11:49:03.907Z,60.76
2018-12-24T11:51:37.704Z,60.84
2018-12-24T11:54:11.056Z,61.48
2018-12-24T11:56:44.261Z,60.99
2018-12-24T11:59:17.987Z,59.92
2018-12-24T12:01:50.790Z,60.62
2018-12-24T12:04:23.563Z,61.09
2018-12-24T12:06:56.823Z,61.29
2018-12-24T12:09:30.528Z,60.71
2018-12-24T12:12:03.960Z,60.40
2018-12-24T12:14:37.851Z,61.45
2018-12-24T12:17:13.623Z,62.06
2018-12-24T12:19:46.151Z,60.84
2018-12-24T12:22:18.312Z,61.68
2018-12-24T12:24:50.483Z,62.23
2018-12-24T12:27:22.652Z,62.01
2018-12-24T12:29:54.920Z,61.19
2018-12-24T12:32:29.772Z,61.74
2018-12-24T12:35:01.996Z,60.44
2018-12-24T12:37:34.465Z,59.84
2018-12-24T12:40:07.731Z,58.42
2018-12-24T12:42:40.052Z,57.54
2018-12-24T12:45:12.315Z,58.21
2018-12-24T12:47:44.619Z,58.67
2018-12-24T12:50:16.892Z,58.97
2018-12-24T12:52:49.251Z,60.14
2018-12-24T12:55:21.601Z,61.09
2018-12-24T12:57:53.874Z,61.42
2018-12-24T13:00:26.082Z,62.17
2018-12-24T13:02:58.316Z,62.84
2018-12-24T13:05:30.469Z,63.42
2018-12-24T13:08:02.650Z,63.99
2018-12-24T13:10:34.880Z,64.88
2018-12-24T13:13:07.022Z,64.64
2018-12-24T13:15:40.853Z,64.50
2018-12-24T13:18:13.119Z,65.10
2018-12-24T13:20:45.332Z,65.65
2018-12-24T13:23:17.627Z,65.22
2018-12-24T13:25:49.977Z,65.19
2018-12-24T13:28:22.108Z,65.73
2018-12-24T13:30:54.272Z,65.36
2018-12-24T13:33:36.343Z,65.99
2018-12-24T13:36:08.254Z,66.24
2018-12-24T13:38:40.375Z,66.28
2018-12-24T13:41:12.574Z,66.62
2018-12-24T13:44:28.732Z,66.96
2018-12-24T13:47:00.452Z,67.06
2018-12-24T13:49:32.185Z,67.91
2018-12-24T13:52:03.809Z,68.11
2018-12-24T13:54:35.530Z,67.68
2018-12-24T13:57:06.508Z,68.01
2018-12-24T13:59:38.301Z,68.64
2018-12-24T14:02:10.039Z,68.92
2018-12-24T14:04:41.915Z,69.05
2018-12-24T14:07:21.772Z,68.80
2018-12-24T14:09:53.486Z,69.43
2018-12-24T14:12:26.023Z,68.68
2018-12-24T14:14:57.689Z,68.60
2018-12-24T14:17:29.542Z,69.05
2018-12-24T14:20:01.198Z,69.17
2018-12-24T14:22:33.065Z,69.09
2018-12-24T14:25:04.847Z,68.50
2018-12-24T14:27:36.563Z,69.25
2018-12-24T14:30:11.068Z,69.06
2018-12-24T14:32:44.666Z,68.03
2018-12-24T14:35:16.259Z,68.03
2018-12-24T14:37:47.945Z,67.95
2018-12-24T14:40:20.346Z,68.47
2018-12-24T14:42:51.963Z,68.62
2018-12-24T14:45:23.626Z,67.83
2018-12-24T14:47:55.553Z,67.90
2018-12-24T14:50:27.499Z,67.35
2018-12-24T14:52:59.596Z,67.77
2018-12-24T14:55:31.726Z,67.76
2018-12-24T14:58:04.577Z,67.62
2018-12-24T15:00:38.075Z,67.57
2018-12-24T15:03:11.251Z,67.62
2018-12-24T15:05:45.868Z,67.05
2018-12-24T15:08:19.122Z,67.54
2018-12-24T15:10:53.499Z,67.22
2018-12-24T15:13:26.244Z,67.52
2018-12-24T15:22:28.101Z,66.95
2018-12-24T15:23:01.039Z,66.65
2018-12-24T15:25:38.800Z,67.08
2018-12-24T15:28:11.173Z,66.60
2018-12-24T15:33:28.235Z,66.83
2018-12-24T15:35:59.809Z,66.74
2018-12-24T15:38:33.713Z,67.02
2018-12-24T15:41:07.496Z,66.48
2018-12-24T15:43:40.483Z,66.43
2018-12-24T15:46:52.431Z,66.78
2018-12-24T15:49:24.900Z,66.79
2018-12-24T15:51:58.627Z,66.72
2018-12-24T15:54:30.296Z,66.78
2018-12-24T15:57:03.267Z,68.29
2018-12-24T15:59:37.000Z,67.35
2018-12-24T16:02:08.788Z,66.48
2018-12-24T16:04:40.439Z,66.76
2018-12-24T16:07:12.752Z,66.66
2018-12-24T16:09:48.789Z,66.98
2018-12-24T16:12:26.866Z,67.30
2018-12-24T16:15:03.105Z,66.93
2018-12-24T16:17:34.843Z,66.59
2018-12-24T16:20:09.398Z,66.93
2018-12-24T16:22:41.130Z,66.93
2018-12-24T16:25:30.006Z,67.00
2018-12-24T16:28:01.818Z,67.02
2018-12-24T16:30:33.436Z,66.76
2018-12-24T16:33:05.135Z,66.56
2018-12-24T16:35:39.051Z,66.57
2018-12-24T16:38:12.013Z,65.57
2018-12-24T16:40:46.268Z,65.44
2018-12-24T16:43:18.830Z,65.03
2018-12-24T16:45:51.999Z,65.43
2018-12-24T16:48:36.399Z,65.10
2018-12-24T16:51:08.662Z,65.46
2018-12-24T16:53:40.859Z,64.49
2018-12-24T16:56:29.844Z,64.61
2018-12-24T16:59:08.839Z,63.88
2018-12-24T17:01:41.089Z,64.09
2018-12-24T17:04:14.415Z,64.19
2018-12-24T17:06:46.269Z,63.73
2018-12-24T17:09:19.247Z,63.60
2018-12-24T17:11:58.517Z,62.46
2018-12-24T17:14:47.380Z,62.58
2018-12-24T17:17:15.924Z,62.36
2018-12-24T17:19:48.614Z,62.26
2018-12-24T17:22:21.213Z,62.47
2018-12-24T17:24:52.956Z,62.36
2018-12-24T17:27:24.730Z,63.00
2018-12-24T17:30:11.709Z,63.20
2018-12-24T17:32:43.559Z,63.46
2018-12-24T17:36:21.472Z,63.86
2018-12-24T17:39:04.113Z,64.27
2018-12-24T17:41:41.932Z,63.94
2018-12-24T17:44:17.603Z,64.51
2018-12-24T17:46:53.739Z,64.83
2018-12-24T17:49:29.830Z,65.21
2018-12-24T17:52:04.577Z,65.29
2018-12-24T17:54:48.136Z,65.37
2018-12-24T17:57:25.680Z,65.41
2018-12-24T17:59:59.309Z,65.14
2018-12-24T18:02:39.699Z,65.15
2018-12-24T18:05:11.751Z,64.87
2018-12-24T18:07:43.468Z,64.96
2018-12-24T18:10:15.942Z,65.18
2018-12-24T18:12:59.450Z,65.01
2018-12-24T18:15:38.347Z,65.49
2018-12-24T18:18:12.375Z,65.13
2018-12-24T18:20:44.241Z,65.02
2018-12-24T18:23:16.119Z,64.79
2018-12-24T18:25:50.908Z,64.78
2018-12-24T18:28:43.410Z,64.22
2018-12-24T18:31:20.018Z,64.54
2018-12-24T18:33:54.893Z,64.68
2018-12-24T18:39:32.371Z,64.32
2018-12-24T18:42:05.048Z,63.86
2018-12-24T18:44:39.656Z,63.02
2018-12-24T18:47:12.186Z,63.27
2018-12-24T18:49:44.504Z,63.05
2018-12-24T18:52:16.205Z,62.53
2018-12-24T18:54:47.904Z,62.37
2018-12-24T19:01:14.253Z,63.20
2018-12-24T19:03:45.982Z,61.88
2018-12-24T19:06:17.847Z,63.29
2018-12-24T19:08:50.433Z,63.75
2018-12-24T19:11:22.076Z,63.94
2018-12-24T19:13:53.974Z,63.87
2018-12-24T19:16:25.750Z,64.06
2018-12-24T19:18:57.411Z,63.81
2018-12-24T19:21:29.180Z,63.58
2018-12-24T19:24:00.793Z,64.04
2018-12-24T19:26:32.630Z,63.79
2018-12-24T19:29:04.220Z,64.14
2018-12-24T19:31:35.930Z,64.66
2018-12-24T19:34:07.504Z,64.44
2018-12-24T19:36:40.225Z,64.86
2018-12-24T19:39:11.813Z,65.27
2018-12-24T19:41:43.399Z,65.21
2018-12-24T19:44:14.978Z,65.48
2018-12-24T19:46:46.554Z,66.01
2018-12-24T19:49:18.196Z,65.96
2018-12-24T19:51:49.752Z,66.43
2018-12-24T19:54:21.350Z,66.63
2018-12-24T19:56:52.919Z,66.78
2018-12-24T19:59:24.490Z,67.16
2018-12-24T20:01:56.122Z,66.70
2018-12-24T20:04:27.902Z,69.75
2018-12-24T20:06:59.602Z,67.61
2018-12-24T20:09:31.311Z,67.31
2018-12-24T20:12:06.745Z,67.14
2018-12-24T20:14:38.336Z,67.06
2018-12-24T20:17:09.910Z,67.32
2018-12-24T20:19:41.487Z,68.01
2018-12-24T20:22:13.158Z,67.45
2018-12-24T20:24:44.724Z,67.56
2018-12-24T20:27:16.306Z,67.46
2018-12-24T20:29:48.008Z,67.51
2018-12-24T20:32:19.557Z,67.82
2018-12-24T20:34:51.122Z,68.08
2018-12-24T20:37:22.751Z,68.08
2018-12-24T20:39:54.350Z,68.09
2018-12-24T20:42:25.926Z,68.21
2018-12-24T20:44:57.558Z,67.94
2018-12-24T20:47:29.134Z,67.88
2018-12-24T20:50:00.705Z,68.48
2018-12-24T20:52:32.293Z,68.86
2018-12-24T20:55:03.865Z,68.62
2018-12-24T20:57:35.543Z,68.77
2018-12-24T21:00:08.480Z,68.90
2018-12-24T21:02:40.351Z,69.32
2018-12-24T21:05:11.987Z,68.83
2018-12-24T21:07:44.579Z,68.76
2018-12-24T21:10:16.189Z,69.35
2018-12-24T21:12:48.178Z,69.66
2018-12-24T21:15:19.814Z,69.35
2018-12-24T21:17:51.508Z,69.24
2018-12-24T21:20:23.218Z,69.04
2018-12-24T21:22:54.888Z,69.02
2018-12-24T21:25:26.777Z,69.12
2018-12-24T21:27:58.762Z,69.41
2018-12-24T21:30:30.450Z,69.26
2018-12-24T21:33:02.755Z,69.28
2018-12-24T21:35:34.575Z,69.77
2018-12-24T21:38:08.287Z,69.82
2018-12-24T21:40:39.912Z,69.81
2018-12-24T21:43:11.507Z,69.91
2018-12-24T21:45:43.344Z,70.15
2018-12-24T21:48:14.949Z,70.37
2018-12-24T21:50:48.340Z,70.46
2018-12-24T21:53:20.012Z,70.50
2018-12-24T21:55:52.841Z,70.67
2018-12-24T21:58:24.671Z,70.59
2018-12-24T22:00:56.480Z,70.43
2018-12-24T22:03:28.248Z,70.88
2018-12-24T22:05:59.902Z,70.99
2018-12-24T22:08:31.668Z,71.47
2018-12-24T22:11:03.259Z,71.05
2018-12-24T22:13:35.054Z,71.11
2018-12-24T22:16:06.698Z,71.37
2018-12-24T22:18:38.360Z,71.50
2018-12-24T22:21:09.924Z,71.67
2018-12-24T22:23:41.472Z,71.61
2018-12-24T22:26:13.072Z,71.57
2018-12-24T22:28:44.649Z,71.78
2018-12-24T22:31:16.229Z,72.11
2018-12-24T22:33:47.829Z,72.05
2018-12-24T22:36:19.411Z,72.43
2018-12-24T22:38:51.009Z,72.36
2018-12-24T22:41:22.696Z,72.28
2018-12-24T22:43:54.297Z,72.14
2018-12-24T22:46:25.908Z,72.50
2018-12-24T22:48:57.554Z,72.32
2018-12-24T22:51:29.274Z,72.47
2018-12-24T22:54:00.927Z,72.58
2018-12-24T22:56:32.605Z,72.71
2018-12-24T22:59:04.183Z,72.99
2018-12-24T23:01:35.858Z,73.34
2018-12-24T23:04:07.576Z,73.23
2018-12-24T23:06:39.210Z,73.97
2018-12-24T23:09:10.875Z,75.67
2018-12-24T23:11:43.786Z,74.53
2018-12-24T23:14:15.354Z,75.39
2018-12-24T23:16:48.388Z,75.62
2018-12-24T23:19:20.235Z,75.68
2018-12-24T23:21:52.386Z,76.32
2018-12-24T23:24:24.408Z,76.97
2018-12-24T23:26:56.136Z,77.16
2018-12-24T23:29:27.778Z,77.41
2018-12-24T23:31:59.420Z,77.85
2018-12-24T23:34:30.997Z,77.51
2018-12-24T23:37:02.598Z,77.36
2018-12-24T23:39:37.901Z,77.13
2018-12-24T23:42:12.622Z,76.99
2018-12-24T23:44:52.681Z,77.57
2018-12-24T23:47:26.043Z,76.87
2018-12-24T23:50:00.146Z,77.08
2018-12-24T23:52:31.919Z,76.69
2018-12-24T23:55:03.495Z,77.15
2018-12-24T23:57:39.067Z,77.30
